Terminal Aerodrome Forecast
Issued by NWS Jackson, MS

Home | Current Version | Previous Version | Text Only | Print | Product List | Glossary On
Versions: 1 2 3 4 5 6 7 8 9 10 11 12
000
FTUS44 KJAN 172300
TAFGLH
TAF
KGLH 172334Z 1800/1824 07004KT P6SM OVC250
     FM181400 05009KT P6SM OVC025
     FM181800 02008KT P6SM BKN040=

USA.gov is the U.S. government's official web portal to all federal, state and local government web resources and services.